Aviation Digital Data Service (ADDS)

Output produced by METARs form (0031 UTC 28 February 2015)
found at http://aviationweather.gov/adds/metars/
 
KISO 272321Z 2800/2824 36005KT P6SM SKC 
     TEMPO 2803/2807 5SM BR OVC007 
     FM280800 01008KT P6SM SCT250 
     FM281500 03010KT P6SM BKN150 AMD LTD TO CLD VIS AND WIND